sensor_id;sensor_type;location;lat;lon;timestamp;pressure;altitude;pressure_sealevel;temperature;humidity
57644;BME280;43474;46.510;6.686;2022-07-29T00:00:00;96255.53;;;19.93;57.96
57644;BME280;43474;46.510;6.686;2022-07-29T00:02:27;96246.78;;;20.01;57.62
57644;BME280;43474;46.510;6.686;2022-07-29T00:04:53;96251.38;;;20.00;59.11
57644;BME280;43474;46.510;6.686;2022-07-29T00:07:19;96236.63;;;19.84;59.47
57644;BME280;43474;46.510;6.686;2022-07-29T00:09:44;96245.19;;;19.86;55.88
57644;BME280;43474;46.510;6.686;2022-07-29T00:12:10;96243.69;;;19.94;58.16
57644;BME280;43474;46.510;6.686;2022-07-29T00:14:35;96245.88;;;19.78;59.44
57644;BME280;43474;46.510;6.686;2022-07-29T00:17:01;96237.34;;;19.76;58.13
57644;BME280;43474;46.510;6.686;2022-07-29T00:19:26;96243.72;;;19.80;57.94
57644;BME280;43474;46.510;6.686;2022-07-29T00:21:52;96237.75;;;19.69;59.36
57644;BME280;43474;46.510;6.686;2022-07-29T00:24:18;96221.50;;;19.60;57.97
57644;BME280;43474;46.510;6.686;2022-07-29T00:26:43;96236.13;;;19.54;57.40
57644;BME280;43474;46.510;6.686;2022-07-29T00:29:08;96243.34;;;19.54;56.43
57644;BME280;43474;46.510;6.686;2022-07-29T00:31:34;96238.06;;;19.49;57.70
57644;BME280;43474;46.510;6.686;2022-07-29T00:34:00;96246.44;;;19.47;57.75
57644;BME280;43474;46.510;6.686;2022-07-29T00:36:25;96252.63;;;19.48;58.28
57644;BME280;43474;46.510;6.686;2022-07-29T00:38:51;96242.97;;;19.47;57.55
57644;BME280;43474;46.510;6.686;2022-07-29T00:41:17;96248.56;;;19.50;59.03
57644;BME280;43474;46.510;6.686;2022-07-29T00:43:43;96254.91;;;19.41;59.39
57644;BME280;43474;46.510;6.686;2022-07-29T00:46:09;96246.72;;;19.32;60.17
57644;BME280;43474;46.510;6.686;2022-07-29T00:48:35;96243.47;;;19.35;58.96
57644;BME280;43474;46.510;6.686;2022-07-29T00:51:03;96252.72;;;19.43;59.62
57644;BME280;43474;46.510;6.686;2022-07-29T00:53:30;96254.31;;;19.44;61.43
57644;BME280;43474;46.510;6.686;2022-07-29T00:55:56;96247.03;;;19.44;57.34
57644;BME280;43474;46.510;6.686;2022-07-29T00:58:22;96254.25;;;19.62;57.61
57644;BME280;43474;46.510;6.686;2022-07-29T01:00:48;96240.72;;;19.68;57.21
57644;BME280;43474;46.510;6.686;2022-07-29T01:03:13;96237.94;;;19.86;55.08
57644;BME280;43474;46.510;6.686;2022-07-29T01:05:40;96234.22;;;20.10;55.04
57644;BME280;43474;46.510;6.686;2022-07-29T01:08:07;96236.06;;;20.23;56.61
57644;BME280;43474;46.510;6.686;2022-07-29T01:10:33;96240.44;;;20.33;54.45
57644;BME280;43474;46.510;6.686;2022-07-29T01:13:02;96245.03;;;20.32;53.42
57644;BME280;43474;46.510;6.686;2022-07-29T01:15:28;96243.13;;;20.33;53.82
57644;BME280;43474;46.510;6.686;2022-07-29T01:18:05;96244.72;;;20.48;53.50
57644;BME280;43474;46.510;6.686;2022-07-29T01:28:49;96265.66;;;20.37;58.23
57644;BME280;43474;46.510;6.686;2022-07-29T01:31:21;96254.78;;;20.28;55.99
57644;BME280;43474;46.510;6.686;2022-07-29T01:33:55;96245.09;;;20.41;54.58
57644;BME280;43474;46.510;6.686;2022-07-29T01:36:27;96237.47;;;20.34;54.63
57644;BME280;43474;46.510;6.686;2022-07-29T01:39:21;96247.22;;;20.30;56.19
57644;BME280;43474;46.510;6.686;2022-07-29T01:42:14;96248.34;;;20.29;55.26
57644;BME280;43474;46.510;6.686;2022-07-29T01:45:00;96252.84;;;20.20;57.56
57644;BME280;43474;46.510;6.686;2022-07-29T01:47:33;96249.47;;;20.14;57.33
57644;BME280;43474;46.510;6.686;2022-07-29T01:50:01;96234.38;;;20.13;59.14
57644;BME280;43474;46.510;6.686;2022-07-29T01:52:41;96252.53;;;20.08;59.73
57644;BME280;43474;46.510;6.686;2022-07-29T01:55:12;96257.13;;;20.07;59.29
57644;BME280;43474;46.510;6.686;2022-07-29T01:57:40;96236.28;;;20.13;58.69
57644;BME280;43474;46.510;6.686;2022-07-29T02:00:08;96240.47;;;20.19;57.30
57644;BME280;43474;46.510;6.686;2022-07-29T02:02:35;96235.03;;;20.33;57.20
57644;BME280;43474;46.510;6.686;2022-07-29T02:05:05;96248.59;;;20.42;57.56
57644;BME280;43474;46.510;6.686;2022-07-29T02:07:33;96254.56;;;20.38;57.92
57644;BME280;43474;46.510;6.686;2022-07-29T02:10:02;96256.84;;;20.45;57.51
57644;BME280;43474;46.510;6.686;2022-07-29T02:12:30;96243.91;;;20.47;57.93
57644;BME280;43474;46.510;6.686;2022-07-29T02:14:59;96248.06;;;20.53;57.13
57644;BME280;43474;46.510;6.686;2022-07-29T02:17:31;96251.16;;;20.60;57.75
57644;BME280;43474;46.510;6.686;2022-07-29T02:20:00;96247.16;;;20.58;58.02
57644;BME280;43474;46.510;6.686;2022-07-29T02:22:29;96244.31;;;20.54;57.98
57644;BME280;43474;46.510;6.686;2022-07-29T02:24:55;96248.69;;;20.50;59.10
57644;BME280;43474;46.510;6.686;2022-07-29T02:27:23;96252.50;;;20.49;59.13
57644;BME280;43474;46.510;6.686;2022-07-29T02:29:50;96245.41;;;20.39;59.50
57644;BME280;43474;46.510;6.686;2022-07-29T02:32:17;96248.38;;;20.38;59.37
57644;BME280;43474;46.510;6.686;2022-07-29T02:34:46;96236.94;;;20.32;60.67
57644;BME280;43474;46.510;6.686;2022-07-29T02:37:12;96246.31;;;20.35;59.72
57644;BME280;43474;46.510;6.686;2022-07-29T02:39:40;96236.94;;;20.32;60.41
57644;BME280;43474;46.510;6.686;2022-07-29T02:42:11;96243.22;;;20.28;62.19
57644;BME280;43474;46.510;6.686;2022-07-29T02:44:37;96232.69;;;20.18;60.54
57644;BME280;43474;46.510;6.686;2022-07-29T02:47:33;96246.53;;;20.25;60.84
57644;BME280;43474;46.510;6.686;2022-07-29T02:50:06;96242.09;;;20.06;61.34
57644;BME280;43474;46.510;6.686;2022-07-29T02:55:19;96245.66;;;20.16;58.87
57644;BME280;43474;46.510;6.686;2022-07-29T02:57:55;96238.97;;;20.13;60.13
57644;BME280;43474;46.510;6.686;2022-07-29T03:00:31;96261.38;;;20.22;58.24
57644;BME280;43474;46.510;6.686;2022-07-29T03:03:02;96265.66;;;20.23;59.61
57644;BME280;43474;46.510;6.686;2022-07-29T03:05:29;96259.81;;;20.21;60.14
57644;BME280;43474;46.510;6.686;2022-07-29T03:08:00;96255.97;;;20.36;58.96
57644;BME280;43474;46.510;6.686;2022-07-29T03:10:27;96266.44;;;20.37;60.65
57644;BME280;43474;46.510;6.686;2022-07-29T03:12:54;96265.97;;;20.35;62.10
57644;BME280;43474;46.510;6.686;2022-07-29T03:15:20;96250.94;;;20.21;61.75
57644;BME280;43474;46.510;6.686;2022-07-29T03:17:47;96252.41;;;20.27;60.25
57644;BME280;43474;46.510;6.686;2022-07-29T03:20:13;96268.25;;;20.28;62.58
57644;BME280;43474;46.510;6.686;2022-07-29T03:22:40;96258.78;;;20.31;62.00
57644;BME280;43474;46.510;6.686;2022-07-29T03:25:10;96263.28;;;20.22;64.58
57644;BME280;43474;46.510;6.686;2022-07-29T03:27:36;96252.94;;;20.15;62.35
57644;BME280;43474;46.510;6.686;2022-07-29T03:30:03;96254.75;;;20.06;65.29
57644;BME280;43474;46.510;6.686;2022-07-29T03:32:29;96270.09;;;20.05;65.50
57644;BME280;43474;46.510;6.686;2022-07-29T03:34:54;96265.41;;;19.97;66.17
57644;BME280;43474;46.510;6.686;2022-07-29T03:37:20;96270.69;;;19.88;69.64
57644;BME280;43474;46.510;6.686;2022-07-29T03:39:45;96267.69;;;19.62;70.14
57644;BME280;43474;46.510;6.686;2022-07-29T03:42:14;96265.31;;;19.61;68.34
57644;BME280;43474;46.510;6.686;2022-07-29T03:44:43;96262.38;;;19.57;67.48
57644;BME280;43474;46.510;6.686;2022-07-29T03:47:10;96278.81;;;19.56;67.89
57644;BME280;43474;46.510;6.686;2022-07-29T03:49:38;96257.72;;;19.49;68.33
57644;BME280;43474;46.510;6.686;2022-07-29T03:52:04;96274.25;;;19.56;69.58
57644;BME280;43474;46.510;6.686;2022-07-29T03:54:30;96262.94;;;19.59;69.48
57644;BME280;43474;46.510;6.686;2022-07-29T03:56:59;96268.00;;;19.75;68.57
57644;BME280;43474;46.510;6.686;2022-07-29T03:59:26;96277.25;;;19.82;68.41
57644;BME280;43474;46.510;6.686;2022-07-29T04:01:52;96261.13;;;19.82;68.83
57644;BME280;43474;46.510;6.686;2022-07-29T04:04:18;96269.91;;;19.74;71.30
57644;BME280;43474;46.510;6.686;2022-07-29T04:06:45;96263.72;;;19.74;69.85
57644;BME280;43474;46.510;6.686;2022-07-29T04:09:11;96275.88;;;19.85;70.15
57644;BME280;43474;46.510;6.686;2022-07-29T04:11:40;96276.69;;;19.85;68.48
57644;BME280;43474;46.510;6.686;2022-07-29T04:14:06;96291.13;;;19.90;69.29
57644;BME280;43474;46.510;6.686;2022-07-29T04:16:32;96287.81;;;19.93;69.77
57644;BME280;43474;46.510;6.686;2022-07-29T04:18:58;96284.75;;;19.99;69.98
57644;BME280;43474;46.510;6.686;2022-07-29T04:21:23;96264.03;;;20.00;70.42
57644;BME280;43474;46.510;6.686;2022-07-29T04:23:49;96271.56;;;20.11;69.72
57644;BME280;43474;46.510;6.686;2022-07-29T04:26:19;96273.16;;;20.12;68.97
57644;BME280;43474;46.510;6.686;2022-07-29T04:28:45;96268.88;;;20.11;68.69
57644;BME280;43474;46.510;6.686;2022-07-29T04:31:11;96277.44;;;20.13;69.21
57644;BME280;43474;46.510;6.686;2022-07-29T04:33:37;96285.22;;;20.01;72.16
57644;BME280;43474;46.510;6.686;2022-07-29T04:36:03;96300.06;;;19.99;74.27
57644;BME280;43474;46.510;6.686;2022-07-29T04:38:28;96303.16;;;19.92;75.61
57644;BME280;43474;46.510;6.686;2022-07-29T04:40:54;96308.06;;;19.90;76.27
57644;BME280;43474;46.510;6.686;2022-07-29T04:43:19;96303.94;;;19.79;75.88
57644;BME280;43474;46.510;6.686;2022-07-29T04:45:45;96315.00;;;19.77;79.44
57644;BME280;43474;46.510;6.686;2022-07-29T04:48:10;96310.41;;;19.64;79.63
57644;BME280;43474;46.510;6.686;2022-07-29T04:50:40;96309.41;;;19.74;77.95
57644;BME280;43474;46.510;6.686;2022-07-29T04:53:06;96302.94;;;19.61;79.62
57644;BME280;43474;46.510;6.686;2022-07-29T04:55:32;96308.13;;;19.71;77.36
57644;BME280;43474;46.510;6.686;2022-07-29T04:57:57;96307.38;;;19.84;76.27
57644;BME280;43474;46.510;6.686;2022-07-29T05:00:22;96310.75;;;19.90;77.41
57644;BME280;43474;46.510;6.686;2022-07-29T05:02:49;96323.19;;;20.00;75.22
57644;BME280;43474;46.510;6.686;2022-07-29T05:05:14;96309.34;;;20.06;75.11
57644;BME280;43474;46.510;6.686;2022-07-29T05:07:40;96309.13;;;20.03;75.89
57644;BME280;43474;46.510;6.686;2022-07-29T05:10:06;96312.03;;;20.06;77.33
57644;BME280;43474;46.510;6.686;2022-07-29T05:12:31;96320.00;;;20.11;78.60
57644;BME280;43474;46.510;6.686;2022-07-29T05:14:57;96318.78;;;20.18;79.98
57644;BME280;43474;46.510;6.686;2022-07-29T05:17:22;96336.84;;;20.31;79.55
57644;BME280;43474;46.510;6.686;2022-07-29T05:19:48;96321.28;;;20.28;81.59
57644;BME280;43474;46.510;6.686;2022-07-29T05:22:15;96333.25;;;20.35;80.44
57644;BME280;43474;46.510;6.686;2022-07-29T05:24:41;96330.44;;;20.40;82.26
57644;BME280;43474;46.510;6.686;2022-07-29T05:27:06;96329.13;;;20.38;85.70
57644;BME280;43474;46.510;6.686;2022-07-29T05:29:32;96321.25;;;20.42;84.58
57644;BME280;43474;46.510;6.686;2022-07-29T05:31:57;96317.38;;;20.48;84.43
57644;BME280;43474;46.510;6.686;2022-07-29T05:34:23;96329.13;;;20.65;83.30
57644;BME280;43474;46.510;6.686;2022-07-29T05:36:50;96325.31;;;20.80;83.85
57644;BME280;43474;46.510;6.686;2022-07-29T05:39:16;96328.19;;;21.06;83.35
57644;BME280;43474;46.510;6.686;2022-07-29T05:41:41;96327.94;;;21.30;82.76
57644;BME280;43474;46.510;6.686;2022-07-29T05:44:07;96332.53;;;21.61;83.00
57644;BME280;43474;46.510;6.686;2022-07-29T05:46:32;96329.41;;;21.99;80.48
57644;BME280;43474;46.510;6.686;2022-07-29T05:48:58;96322.03;;;22.22;78.82
57644;BME280;43474;46.510;6.686;2022-07-29T05:51:23;96332.09;;;22.38;78.98
57644;BME280;43474;46.510;6.686;2022-07-29T05:53:49;96343.84;;;22.42;75.79
57644;BME280;43474;46.510;6.686;2022-07-29T05:56:14;96351.13;;;22.33;80.11
57644;BME280;43474;46.510;6.686;2022-07-29T05:58:39;96352.50;;;22.22;78.50
57644;BME280;43474;46.510;6.686;2022-07-29T06:01:05;96356.16;;;22.17;77.24
57644;BME280;43474;46.510;6.686;2022-07-29T06:03:30;96340.19;;;22.07;81.73
57644;BME280;43474;46.510;6.686;2022-07-29T06:05:56;96351.78;;;22.08;83.85
57644;BME280;43474;46.510;6.686;2022-07-29T06:08:22;96350.56;;;21.83;86.04
57644;BME280;43474;46.510;6.686;2022-07-29T06:10:47;96349.44;;;21.75;87.65
57644;BME280;43474;46.510;6.686;2022-07-29T06:13:13;96352.63;;;21.77;84.70
57644;BME280;43474;46.510;6.686;2022-07-29T06:15:41;96340.03;;;21.64;88.78
57644;BME280;43474;46.510;6.686;2022-07-29T06:18:07;96352.00;;;21.49;94.63
57644;BME280;43474;46.510;6.686;2022-07-29T06:20:34;96347.03;;;21.42;94.95
57644;BME280;43474;46.510;6.686;2022-07-29T06:23:00;96369.25;;;21.48;97.65
57644;BME280;43474;46.510;6.686;2022-07-29T06:25:26;96354.97;;;21.48;100.00
57644;BME280;43474;46.510;6.686;2022-07-29T06:27:54;96359.59;;;21.47;100.00
57644;BME280;43474;46.510;6.686;2022-07-29T06:30:20;96366.63;;;21.57;99.03
57644;BME280;43474;46.510;6.686;2022-07-29T06:32:45;96374.47;;;21.67;100.00
57644;BME280;43474;46.510;6.686;2022-07-29T06:35:11;96381.22;;;21.78;97.58
57644;BME280;43474;46.510;6.686;2022-07-29T06:37:36;96379.31;;;21.87;99.68
57644;BME280;43474;46.510;6.686;2022-07-29T06:40:03;96375.69;;;21.92;98.97
57644;BME280;43474;46.510;6.686;2022-07-29T06:42:48;96368.25;;;21.98;98.19
57644;BME280;43474;46.510;6.686;2022-07-29T06:45:14;96373.09;;;22.09;100.00
57644;BME280;43474;46.510;6.686;2022-07-29T06:47:39;96365.00;;;22.09;94.18
57644;BME280;43474;46.510;6.686;2022-07-29T06:50:05;96368.09;;;22.25;98.47
57644;BME280;43474;46.510;6.686;2022-07-29T06:52:31;96364.19;;;22.57;92.93
57644;BME280;43474;46.510;6.686;2022-07-29T06:54:56;96357.78;;;23.28;94.17
57644;BME280;43474;46.510;6.686;2022-07-29T06:57:22;96371.44;;;23.40;85.35
57644;BME280;43474;46.510;6.686;2022-07-29T06:59:48;96357.44;;;24.49;83.77
57644;BME280;43474;46.510;6.686;2022-07-29T07:02:14;96386.38;;;26.40;76.65
57644;BME280;43474;46.510;6.686;2022-07-29T07:04:39;96378.03;;;25.21;74.58
57644;BME280;43474;46.510;6.686;2022-07-29T07:07:05;96367.31;;;24.54;79.08
57644;BME280;43474;46.510;6.686;2022-07-29T07:09:30;96366.28;;;24.29;78.80
57644;BME280;43474;46.510;6.686;2022-07-29T07:11:56;96366.16;;;24.16;80.19
57644;BME280;43474;46.510;6.686;2022-07-29T07:14:21;96383.00;;;23.84;82.02
57644;BME280;43474;46.510;6.686;2022-07-29T07:16:47;96396.09;;;23.64;81.41
57644;BME280;43474;46.510;6.686;2022-07-29T07:19:13;96381.75;;;23.46;81.96
57644;BME280;43474;46.510;6.686;2022-07-29T07:21:38;96381.94;;;23.41;82.91
57644;BME280;43474;46.510;6.686;2022-07-29T07:24:04;96379.84;;;23.47;82.18
57644;BME280;43474;46.510;6.686;2022-07-29T07:26:29;96364.97;;;23.96;82.46
57644;BME280;43474;46.510;6.686;2022-07-29T07:28:55;96366.81;;;23.58;83.61
57644;BME280;43474;46.510;6.686;2022-07-29T07:31:21;96374.94;;;23.40;83.03
57644;BME280;43474;46.510;6.686;2022-07-29T07:33:46;96381.31;;;23.27;86.43
57644;BME280;43474;46.510;6.686;2022-07-29T07:36:12;96392.63;;;23.29;87.63
57644;BME280;43474;46.510;6.686;2022-07-29T07:38:47;96391.16;;;23.58;84.35
57644;BME280;43474;46.510;6.686;2022-07-29T07:41:13;96390.28;;;24.01;86.20
57644;BME280;43474;46.510;6.686;2022-07-29T07:43:38;96398.34;;;25.36;77.68
57644;BME280;43474;46.510;6.686;2022-07-29T07:46:04;96390.78;;;27.06;71.76
57644;BME280;43474;46.510;6.686;2022-07-29T07:48:30;96404.25;;;27.15;73.95
57644;BME280;43474;46.510;6.686;2022-07-29T07:50:55;96402.00;;;26.19;71.99
57644;BME280;43474;46.510;6.686;2022-07-29T07:53:21;96411.97;;;25.27;77.06
57644;BME280;43474;46.510;6.686;2022-07-29T07:55:47;96419.78;;;24.79;78.49
57644;BME280;43474;46.510;6.686;2022-07-29T07:58:12;96419.88;;;24.14;81.35
57644;BME280;43474;46.510;6.686;2022-07-29T08:00:38;96433.22;;;24.19;83.98
57644;BME280;43474;46.510;6.686;2022-07-29T08:03:03;96428.19;;;24.01;84.82
57644;BME280;43474;46.510;6.686;2022-07-29T08:05:29;96423.72;;;24.05;85.06
57644;BME280;43474;46.510;6.686;2022-07-29T08:07:54;96421.53;;;23.89;85.68
57644;BME280;43474;46.510;6.686;2022-07-29T08:10:20;96409.91;;;23.80;84.63
57644;BME280;43474;46.510;6.686;2022-07-29T08:13:09;96419.00;;;23.84;84.11
57644;BME280;43474;46.510;6.686;2022-07-29T08:15:35;96413.56;;;23.84;84.50
57644;BME280;43474;46.510;6.686;2022-07-29T08:18:01;96425.25;;;24.23;87.22
57644;BME280;43474;46.510;6.686;2022-07-29T08:20:27;96420.97;;;24.60;85.32
57644;BME280;43474;46.510;6.686;2022-07-29T08:22:52;96418.38;;;24.72;82.95
57644;BME280;43474;46.510;6.686;2022-07-29T08:25:19;96429.78;;;24.87;83.56
57644;BME280;43474;46.510;6.686;2022-07-29T08:27:46;96423.63;;;24.98;84.95
57644;BME280;43474;46.510;6.686;2022-07-29T08:30:24;96420.03;;;24.86;84.65
57644;BME280;43474;46.510;6.686;2022-07-29T08:32:50;96438.81;;;24.61;85.36
57644;BME280;43474;46.510;6.686;2022-07-29T08:35:18;96435.59;;;24.30;86.08
57644;BME280;43474;46.510;6.686;2022-07-29T08:37:44;96433.47;;;23.97;86.72
57644;BME280;43474;46.510;6.686;2022-07-29T08:40:10;96430.09;;;23.91;87.17
57644;BME280;43474;46.510;6.686;2022-07-29T08:42:36;96434.78;;;23.82;86.50
57644;BME280;43474;46.510;6.686;2022-07-29T08:45:02;96439.84;;;23.75;87.78
57644;BME280;43474;46.510;6.686;2022-07-29T08:47:29;96423.63;;;23.66;90.68
57644;BME280;43474;46.510;6.686;2022-07-29T08:49:54;96416.91;;;23.81;90.96
57644;BME280;43474;46.510;6.686;2022-07-29T08:52:20;96429.19;;;23.87;91.45
57644;BME280;43474;46.510;6.686;2022-07-29T08:54:47;96409.75;;;23.85;91.43
57644;BME280;43474;46.510;6.686;2022-07-29T08:57:13;96419.16;;;23.88;91.85
57644;BME280;43474;46.510;6.686;2022-07-29T08:59:40;96431.69;;;24.01;91.70
57644;BME280;43474;46.510;6.686;2022-07-29T09:02:13;96436.97;;;23.97;92.45
57644;BME280;43474;46.510;6.686;2022-07-29T09:04:41;96418.94;;;24.02;91.05
57644;BME280;43474;46.510;6.686;2022-07-29T09:07:08;96429.56;;;24.15;93.19
57644;BME280;43474;46.510;6.686;2022-07-29T09:09:34;96422.94;;;24.04;93.44
57644;BME280;43474;46.510;6.686;2022-07-29T09:12:00;96428.09;;;24.27;92.49
57644;BME280;43474;46.510;6.686;2022-07-29T09:14:26;96421.44;;;24.15;96.20
57644;BME280;43474;46.510;6.686;2022-07-29T09:16:54;96434.88;;;24.12;96.02
57644;BME280;43474;46.510;6.686;2022-07-29T09:19:26;96439.63;;;24.15;94.97
57644;BME280;43474;46.510;6.686;2022-07-29T09:21:52;96443.16;;;23.98;95.76
57644;BME280;43474;46.510;6.686;2022-07-29T09:26:59;96445.53;;;24.08;94.62
57644;BME280;43474;46.510;6.686;2022-07-29T09:29:25;96434.38;;;24.01;93.56
57644;BME280;43474;46.510;6.686;2022-07-29T09:31:54;96441.34;;;24.28;90.44
57644;BME280;43474;46.510;6.686;2022-07-29T09:34:25;96433.38;;;24.23;91.26
57644;BME280;43474;46.510;6.686;2022-07-29T09:36:53;96440.81;;;24.35;91.23
57644;BME280;43474;46.510;6.686;2022-07-29T09:39:37;96444.94;;;24.49;89.85
57644;BME280;43474;46.510;6.686;2022-07-29T09:42:05;96439.19;;;24.51;90.81
57644;BME280;43474;46.510;6.686;2022-07-29T09:44:49;96435.38;;;24.52;88.27
57644;BME280;43474;46.510;6.686;2022-07-29T09:47:16;96428.16;;;24.56;89.33
57644;BME280;43474;46.510;6.686;2022-07-29T09:49:54;96422.66;;;24.44;89.60
57644;BME280;43474;46.510;6.686;2022-07-29T09:52:20;96439.88;;;24.39;91.94
57644;BME280;43474;46.510;6.686;2022-07-29T09:54:46;96433.50;;;24.27;90.54
57644;BME280;43474;46.510;6.686;2022-07-29T09:57:26;96434.47;;;24.39;87.04
57644;BME280;43474;46.510;6.686;2022-07-29T09:59:57;96435.41;;;24.35;89.46
57644;BME280;43474;46.510;6.686;2022-07-29T10:02:27;96440.66;;;24.31;89.84
57644;BME280;43474;46.510;6.686;2022-07-29T10:04:53;96443.16;;;23.98;91.27
57644;BME280;43474;46.510;6.686;2022-07-29T10:07:19;96446.19;;;23.96;93.06
57644;BME280;43474;46.510;6.686;2022-07-29T10:09:53;96434.91;;;23.86;92.18
57644;BME280;43474;46.510;6.686;2022-07-29T10:12:20;96440.75;;;24.14;94.46
57644;BME280;43474;46.510;6.686;2022-07-29T10:14:46;96443.88;;;24.24;92.75
57644;BME280;43474;46.510;6.686;2022-07-29T10:17:12;96455.25;;;24.56;89.65
57644;BME280;43474;46.510;6.686;2022-07-29T10:19:38;96456.03;;;24.65;90.97
57644;BME280;43474;46.510;6.686;2022-07-29T10:22:07;96465.44;;;24.68;88.54
57644;BME280;43474;46.510;6.686;2022-07-29T10:24:33;96460.75;;;24.39;89.06
57644;BME280;43474;46.510;6.686;2022-07-29T10:27:01;96452.00;;;24.24;89.61
57644;BME280;43474;46.510;6.686;2022-07-29T10:29:29;96455.97;;;24.36;90.20
57644;BME280;43474;46.510;6.686;2022-07-29T10:32:24;96477.53;;;24.15;90.18
57644;BME280;43474;46.510;6.686;2022-07-29T10:38:30;96465.13;;;24.05;91.92
57644;BME280;43474;46.510;6.686;2022-07-29T10:43:56;96469.13;;;23.99;93.00
57644;BME280;43474;46.510;6.686;2022-07-29T10:46:24;96462.13;;;23.89;92.40
57644;BME280;43474;46.510;6.686;2022-07-29T10:59:42;96476.69;;;24.40;84.14
57644;BME280;43474;46.510;6.686;2022-07-29T11:05:06;96476.09;;;24.09;86.56
57644;BME280;43474;46.510;6.686;2022-07-29T11:07:34;96471.66;;;23.87;88.62
57644;BME280;43474;46.510;6.686;2022-07-29T11:15:04;96512.03;;;23.05;92.67
57644;BME280;43474;46.510;6.686;2022-07-29T11:23:31;96542.78;;;22.56;95.12
57644;BME280;43474;46.510;6.686;2022-07-29T11:28:55;96562.88;;;22.41;100.00
57644;BME280;43474;46.510;6.686;2022-07-29T11:34:20;96588.63;;;21.80;100.00
57644;BME280;43474;46.510;6.686;2022-07-29T11:44:54;96618.47;;;20.59;100.00
57644;BME280;43474;46.510;6.686;2022-07-29T11:47:25;96622.53;;;20.38;100.00
57644;BME280;43474;46.510;6.686;2022-07-29T11:49:52;96621.56;;;20.34;100.00
57644;BME280;43474;46.510;6.686;2022-07-29T11:52:18;96626.25;;;20.42;100.00
57644;BME280;43474;46.510;6.686;2022-07-29T11:54:44;96639.22;;;20.59;100.00
57644;BME280;43474;46.510;6.686;2022-07-29T11:57:12;96628.31;;;20.50;100.00
57644;BME280;43474;46.510;6.686;2022-07-29T11:59:43;96628.63;;;20.44;100.00
57644;BME280;43474;46.510;6.686;2022-07-29T12:02:10;96633.31;;;20.57;100.00
57644;BME280;43474;46.510;6.686;2022-07-29T12:04:49;96628.63;;;20.49;100.00
57644;BME280;43474;46.510;6.686;2022-07-29T12:07:15;96632.38;;;20.48;100.00
57644;BME280;43474;46.510;6.686;2022-07-29T12:09:52;96629.94;;;20.65;100.00
57644;BME280;43474;46.510;6.686;2022-07-29T12:12:19;96629.72;;;20.61;100.00
57644;BME280;43474;46.510;6.686;2022-07-29T12:14:44;96635.69;;;20.58;100.00
57644;BME280;43474;46.510;6.686;2022-07-29T12:19:55;96640.88;;;20.55;100.00
57644;BME280;43474;46.510;6.686;2022-07-29T12:22:27;96652.84;;;20.49;100.00
57644;BME280;43474;46.510;6.686;2022-07-29T12:24:54;96641.19;;;20.34;100.00
57644;BME280;43474;46.510;6.686;2022-07-29T12:27:20;96637.47;;;20.30;100.00
57644;BME280;43474;46.510;6.686;2022-07-29T12:29:56;96631.50;;;20.33;100.00
57644;BME280;43474;46.510;6.686;2022-07-29T12:32:22;96637.09;;;20.37;100.00
57644;BME280;43474;46.510;6.686;2022-07-29T12:34:49;96654.03;;;20.37;100.00
57644;BME280;43474;46.510;6.686;2022-07-29T12:37:15;96641.84;;;20.26;100.00
57644;BME280;43474;46.510;6.686;2022-07-29T12:39:40;96645.56;;;20.30;100.00
57644;BME280;43474;46.510;6.686;2022-07-29T12:42:13;96645.78;;;20.34;100.00
57644;BME280;43474;46.510;6.686;2022-07-29T12:44:47;96646.69;;;20.43;100.00
57644;BME280;43474;46.510;6.686;2022-07-29T12:47:14;96634.19;;;20.33;100.00
57644;BME280;43474;46.510;6.686;2022-07-29T12:49:39;96633.22;;;20.43;100.00
57644;BME280;43474;46.510;6.686;2022-07-29T12:52:25;96645.03;;;20.47;100.00
57644;BME280;43474;46.510;6.686;2022-07-29T12:54:51;96638.69;;;20.38;100.00
57644;BME280;43474;46.510;6.686;2022-07-29T12:57:16;96640.31;;;20.39;100.00
57644;BME280;43474;46.510;6.686;2022-07-29T12:59:42;96632.41;;;20.29;100.00
57644;BME280;43474;46.510;6.686;2022-07-29T13:02:20;96646.66;;;20.29;100.00
57644;BME280;43474;46.510;6.686;2022-07-29T13:04:55;96649.03;;;20.31;100.00
57644;BME280;43474;46.510;6.686;2022-07-29T13:07:26;96649.91;;;20.45;100.00
57644;BME280;43474;46.510;6.686;2022-07-29T13:09:54;96645.63;;;20.44;100.00
57644;BME280;43474;46.510;6.686;2022-07-29T13:12:19;96652.59;;;20.45;100.00
57644;BME280;43474;46.510;6.686;2022-07-29T13:14:47;96658.22;;;20.49;100.00
57644;BME280;43474;46.510;6.686;2022-07-29T13:17:22;96658.34;;;20.57;100.00
57644;BME280;43474;46.510;6.686;2022-07-29T13:20:13;96660.91;;;20.49;100.00
57644;BME280;43474;46.510;6.686;2022-07-29T13:22:40;96653.63;;;20.49;100.00
57644;BME280;43474;46.510;6.686;2022-07-29T13:25:08;96649.47;;;20.57;100.00
57644;BME280;43474;46.510;6.686;2022-07-29T13:27:36;96650.00;;;20.73;100.00
57644;BME280;43474;46.510;6.686;2022-07-29T13:30:04;96651.44;;;20.84;100.00
57644;BME280;43474;46.510;6.686;2022-07-29T13:32:32;96663.41;;;20.91;100.00
57644;BME280;43474;46.510;6.686;2022-07-29T13:35:01;96653.16;;;20.94;100.00
57644;BME280;43474;46.510;6.686;2022-07-29T13:37:27;96655.84;;;21.07;100.00
57644;BME280;43474;46.510;6.686;2022-07-29T13:39:57;96655.28;;;21.24;100.00
57644;BME280;43474;46.510;6.686;2022-07-29T13:42:24;96668.41;;;21.45;100.00
57644;BME280;43474;46.510;6.686;2022-07-29T13:44:50;96657.78;;;21.62;100.00
57644;BME280;43474;46.510;6.686;2022-07-29T13:47:18;96653.78;;;21.73;100.00
57644;BME280;43474;46.510;6.686;2022-07-29T13:49:43;96659.34;;;21.90;100.00
57644;BME280;43474;46.510;6.686;2022-07-29T13:52:09;96652.25;;;21.94;100.00
57644;BME280;43474;46.510;6.686;2022-07-29T13:54:35;96657.75;;;21.89;100.00
57644;BME280;43474;46.510;6.686;2022-07-29T13:57:06;96658.16;;;21.83;100.00
57644;BME280;43474;46.510;6.686;2022-07-29T13:59:32;96668.75;;;21.79;100.00
57644;BME280;43474;46.510;6.686;2022-07-29T14:01:58;96661.97;;;21.68;100.00